Air Quality Table

TIMESTAMP NO2 SO2 O3 PM10 PM2.5 CO TEMP HUM WS WD NO
2021-07-28 07:00 8.84 ug/m3 0.72 ug/m3 85.64 ug/m3 6.88 ug/m3 6.41 ug/m3 0.16 mg/m3 25.72 C 79.57 % 1.77 m/s 325.73 Deg 0.68 ug/m3
2021-07-28 06:00 6.2 ug/m3 0.64 ug/m3 91.06 ug/m3 7.52 ug/m3 6.09 ug/m3 0.16 mg/m3 25.18 C 83.96 % 1.52 m/s 323.19 Deg 0.06 ug/m3
2021-07-28 05:00 10.99 ug/m3 0.62 ug/m3 76.41 ug/m3 6.72 ug/m3 5.5 ug/m3 0.16 mg/m3 25.21 C 84.31 % 2.27 m/s 343.13 Deg 0 ug/m3
2021-07-28 04:00 3.12 ug/m3 0.82 ug/m3 99.61 ug/m3 5.27 ug/m3 5.56 ug/m3 0.16 mg/m3 25.21 C 83.48 % 3 m/s 344.26 Deg -0.01 ug/m3
2021-07-28 03:00 1.73 ug/m3 0.32 ug/m3 107.82 ug/m3 5.76 ug/m3 5.17 ug/m3 0.15 mg/m3 25.05 C 82.28 % 2.51 m/s 341.3 Deg -0.02 ug/m3
2021-07-28 02:00 0.01 ug/m3 0.24 ug/m3 113.41 ug/m3 5.62 ug/m3 4.88 ug/m3 0.14 mg/m3 24.99 C 84.67 % 1.4 m/s 318.88 Deg -0.02 ug/m3
2021-07-28 01:00 0.69 ug/m3 0.65 ug/m3 123.66 ug/m3 3.82 ug/m3 5.68 ug/m3 0.16 mg/m3 26.26 C 65.05 % 1.76 m/s 342.24 Deg -0.01 ug/m3
2021-07-28 00:00 1.46 ug/m3 0.84 ug/m3 130.29 ug/m3 5.3 ug/m3 5.08 ug/m3 0.15 mg/m3 27.12 C 51.42 % 1.33 m/s 354.24 Deg -0.02 ug/m3
2021-07-27 23:00 1.45 ug/m3 0.82 ug/m3 132.14 ug/m3 6.51 ug/m3 4.92 ug/m3 0.14 mg/m3 27.52 C 41.84 % 0.96 m/s 37.25 Deg -0.01 ug/m3
2021-07-27 22:00 0.86 ug/m3 0.92 ug/m3 128.1 ug/m3 6.61 ug/m3 5.88 ug/m3 0.15 mg/m3 27.57 C 43.53 % 1.32 m/s 55.75 Deg -0.02 ug/m3
2021-07-27 21:00 0.47 ug/m3 0.83 ug/m3 128.1 ug/m3 6.42 ug/m3 5.53 ug/m3 0.15 mg/m3 27.27 C 50.55 % 1.03 m/s 65.07 Deg -0.02 ug/m3
2021-07-27 20:00 0.84 ug/m3 0.6 ug/m3 124.52 ug/m3 5.51 ug/m3 4.81 ug/m3 0.15 mg/m3 26.94 C 60.2 % 0.94 m/s 97.73 Deg -0.02 ug/m3
2021-07-27 19:00 0.71 ug/m3 0.77 ug/m3 129.32 ug/m3 6.66 ug/m3 4.79 ug/m3 0.14 mg/m3 28.81 C 37.74 % 1.2 m/s 301.81 Deg -0.02 ug/m3
2021-07-27 18:00 0.26 ug/m3 0.82 ug/m3 129.09 ug/m3 7.14 ug/m3 4.55 ug/m3 0.15 mg/m3 28.88 C 44.02 % 1.99 m/s 328.5 Deg 0.01 ug/m3
2021-07-27 17:00 0.54 ug/m3 0.81 ug/m3 127.28 ug/m3 7.04 ug/m3 5.29 ug/m3 0.16 mg/m3 27.99 C 64.01 % 2.58 m/s 348.43 Deg 0.08 ug/m3
2021-07-27 16:00 0.33 ug/m3 0.65 ug/m3 120.23 ug/m3 6.39 ug/m3 5.29 ug/m3 0.16 mg/m3 27.59 C 71.29 % 2.86 m/s 335.04 Deg 0.06 ug/m3
2021-07-27 15:00 0.13 ug/m3 0.61 ug/m3 113.1 ug/m3 6.18 ug/m3 5.49 ug/m3 0.16 mg/m3 28.24 C 64.55 % 2.56 m/s 330.07 Deg 0.03 ug/m3
2021-07-27 14:00 0.37 ug/m3 0.63 ug/m3 109.22 ug/m3 7.76 ug/m3 4.88 ug/m3 0.16 mg/m3 28.06 C 68.74 % 3.11 m/s 234.73 Deg 0.06 ug/m3
2021-07-27 13:00 0.15 ug/m3 0.51 ug/m3 106.93 ug/m3 7.47 ug/m3 5.84 ug/m3 0.16 mg/m3 28.32 C 65.44 % 2.76 m/s 128.53 Deg 0.05 ug/m3
2021-07-27 12:00 0.17 ug/m3 0.15 ug/m3 105.5 ug/m3 8.35 ug/m3 6.66 ug/m3 0.17 mg/m3 26.85 C 81.77 % 3.6 m/s 111.92 Deg 0.06 ug/m3
2021-07-27 11:00 0.57 ug/m3 0.15 ug/m3 107.75 ug/m3 10.26 ug/m3 7.05 ug/m3 0.17 mg/m3 26.92 C 81.84 % 2.99 m/s 70.66 Deg 0.1 ug/m3
2021-07-27 10:00 0.99 ug/m3 0.38 ug/m3 107.8 ug/m3 11.78 ug/m3 6.15 ug/m3 0.17 mg/m3 27.14 C 79.76 % 2.45 m/s 114.86 Deg 0.12 ug/m3
2021-07-27 09:00 0.86 ug/m3 0.41 ug/m3 111.12 ug/m3 14.5 ug/m3 7.54 ug/m3 0.17 mg/m3 26.78 C 74.11 % 2.6 m/s 177.57 Deg 0.12 ug/m3
2021-07-27 08:00 4.41 ug/m3 0.27 ug/m3 99.52 ug/m3 16.88 ug/m3 8.19 ug/m3 0.18 mg/m3 25.93 C 85.98 % 2.04 m/s 183.54 Deg 0.53 ug/m3
2021-07-27 07:00 15.26 ug/m3 0.23 ug/m3 74.14 ug/m3 12.48 ug/m3 7.97 ug/m3 0.24 mg/m3 24.74 C 90.36 % 1.29 m/s 116.15 Deg 1.34 ug/m3
2021-07-27 06:00 4.09 ug/m3 0.16 ug/m3 86.84 ug/m3 10.31 ug/m3 6.86 ug/m3 0.18 mg/m3 24.24 C 92.78 % 1.43 m/s 135.31 Deg 0.07 ug/m3
2021-07-27 05:00 1.98 ug/m3 0.14 ug/m3 89.28 ug/m3 8.65 ug/m3 6.07 ug/m3 0.17 mg/m3 24.08 C 92.24 % 0.89 m/s 101.89 Deg -0.01 ug/m3
2021-07-27 04:00 0.1 ug/m3 0.41 ug/m3 92.7 ug/m3 8.4 ug/m3 6.27 ug/m3 0.17 mg/m3 24.46 C 91.52 % 1.43 m/s 143.75 Deg -0.01 ug/m3
2021-07-27 03:00 0.59 ug/m3 0.16 ug/m3 95.37 ug/m3 8.19 ug/m3 6.38 ug/m3 0.17 mg/m3 24.77 C 86.91 % 1.5 m/s 151.84 Deg -0.01 ug/m3
2021-07-27 02:00 0.74 ug/m3 0.27 ug/m3 97.75 ug/m3 7.66 ug/m3 6.73 ug/m3 0.15 mg/m3 24.94 C 79.64 % 1.22 m/s 125.71 Deg -0.02 ug/m3
2021-07-27 01:00 0.53 ug/m3 0.23 ug/m3 96.63 ug/m3 7.97 ug/m3 6.76 ug/m3 0.18 mg/m3 25.24 C 74.53 % 1.66 m/s 124.68 Deg 0 ug/m3
2021-07-27 00:00 0.8 ug/m3 0.23 ug/m3 91.33 ug/m3 9.11 ug/m3 5.81 ug/m3 0.18 mg/m3 25.4 C 75.9 % 1.83 m/s 128.38 Deg -0.01 ug/m3
2021-07-26 23:00 1.47 ug/m3 0.25 ug/m3 88.09 ug/m3 10.41 ug/m3 6.41 ug/m3 0.19 mg/m3 25.63 C 75.67 % 1.65 m/s 146.98 Deg -0 ug/m3
2021-07-26 22:00 2.71 ug/m3 0.33 ug/m3 84.1 ug/m3 11.33 ug/m3 6.53 ug/m3 0.19 mg/m3 26.01 C 74.54 % 1.84 m/s 149.88 Deg -0.01 ug/m3
2021-07-26 21:00 2.12 ug/m3 0.32 ug/m3 87.29 ug/m3 11.54 ug/m3 6.09 ug/m3 0.18 mg/m3 26.5 C 70.49 % 2.58 m/s 142.23 Deg -0.02 ug/m3
2021-07-26 20:00 0.93 ug/m3 0.28 ug/m3 93.02 ug/m3 9.38 ug/m3 5.54 ug/m3 0.17 mg/m3 26.68 C 68.44 % 3.22 m/s 157 Deg -0.01 ug/m3
2021-07-26 19:00 0.84 ug/m3 0.35 ug/m3 95.23 ug/m3 11.49 ug/m3 6 ug/m3 0.16 mg/m3 27.16 C 69.68 % 4.5 m/s 164.28 Deg 0.03 ug/m3
2021-07-26 18:00 1.75 ug/m3 0.47 ug/m3 93.1 ug/m3 10.13 ug/m3 5.7 ug/m3 0.15 mg/m3 27.93 C 67.36 % 4.89 m/s 168.44 Deg 0.18 ug/m3
2021-07-26 17:00 1.03 ug/m3 0.53 ug/m3 96.96 ug/m3 8.79 ug/m3 5.19 ug/m3 0.15 mg/m3 28.61 C 61.76 % 4.53 m/s 167.54 Deg 0.11 ug/m3
2021-07-26 16:00 0.87 ug/m3 0.51 ug/m3 101.75 ug/m3 8.27 ug/m3 3.8 ug/m3 0.14 mg/m3 29.06 C 53.78 % 4.21 m/s 176.41 Deg 0.07 ug/m3
2021-07-26 15:00 1 ug/m3 0.51 ug/m3 98.32 ug/m3 8.4 ug/m3 4.82 ug/m3 0.14 mg/m3 29.78 C 48.05 % 3.42 m/s 173.9 Deg 0.13 ug/m3
2021-07-26 14:00 0.55 ug/m3 0.49 ug/m3 104.31 ug/m3 9.96 ug/m3 5.13 ug/m3 0.15 mg/m3 28.52 C 66.63 % 2.87 m/s 314.95 Deg 0.07 ug/m3
2021-07-26 13:00 1.58 ug/m3 0.61 ug/m3 117.67 ug/m3 11.22 ug/m3 6.97 ug/m3 0.16 mg/m3 28.14 C 68.55 % 2.95 m/s 295.06 Deg 0.14 ug/m3
2021-07-26 12:00 1.48 ug/m3 0.69 ug/m3 109.58 ug/m3 9.08 ug/m3 6.65 ug/m3 0.15 mg/m3 29.13 C 58.61 % 2.27 m/s 170.14 Deg 0.11 ug/m3
2021-07-26 11:00 0.85 ug/m3 0.6 ug/m3 105.27 ug/m3 11.54 ug/m3 5.53 ug/m3 0.14 mg/m3 28.47 C 54.49 % 4.51 m/s 177.54 Deg 0.05 ug/m3
2021-07-26 10:00 1 ug/m3 0.43 ug/m3 99.57 ug/m3 10.37 ug/m3 4.13 ug/m3 0.14 mg/m3 28.06 C 60.51 % 4.6 m/s 165.63 Deg 0.1 ug/m3
2021-07-26 09:00 0.51 ug/m3 0.31 ug/m3 97.23 ug/m3 11.37 ug/m3 4.85 ug/m3 0.14 mg/m3 26.79 C 75.15 % 5.34 m/s 170.81 Deg 0.08 ug/m3
2021-07-26 08:00 1.38 ug/m3 0.29 ug/m3 94.04 ug/m3 14.2 ug/m3 5.01 ug/m3 0.14 mg/m3 26.3 C 79.8 % 4.1 m/s 182.15 Deg 0.16 ug/m3
2021-07-26 07:00 2.5 ug/m3 0.23 ug/m3 93.68 ug/m3 9.74 ug/m3 5.09 ug/m3 0.14 mg/m3 26.22 C 68.28 % 2.52 m/s 158.94 Deg 0.11 ug/m3
2021-07-26 06:00 3.23 ug/m3 0.25 ug/m3 96.94 ug/m3 6.21 ug/m3 4.53 ug/m3 0.13 mg/m3 26.12 C 55.45 % 4.58 m/s 143.23 Deg 0.03 ug/m3
2021-07-26 05:00 2.86 ug/m3 0.26 ug/m3 93.25 ug/m3 6.51 ug/m3 4.67 ug/m3 0.13 mg/m3 25.81 C 57.69 % 3.41 m/s 127.19 Deg -0.01 ug/m3
2021-07-26 04:00 0.59 ug/m3 0.39 ug/m3 90.68 ug/m3 6.24 ug/m3 4.58 ug/m3 0.13 mg/m3 25.37 C 74.2 % 3.38 m/s 136.54 Deg -0.02 ug/m3
2021-07-26 03:00 2.1 ug/m3 0.2 ug/m3 90.93 ug/m3 5.43 ug/m3 4.23 ug/m3 0.13 mg/m3 25.67 C 73.61 % 3.35 m/s 146.46 Deg -0.02 ug/m3
2021-07-26 02:00 2.42 ug/m3 0.3 ug/m3 95.24 ug/m3 5.27 ug/m3 4.8 ug/m3 0.12 mg/m3 26.24 C 59.06 % 3.2 m/s 152.02 Deg -0.02 ug/m3
2021-07-26 01:00 4.16 ug/m3 0.38 ug/m3 90.29 ug/m3 6.18 ug/m3 4.37 ug/m3 0.14 mg/m3 26.09 C 59.92 % 2.58 m/s 147.1 Deg -0.02 ug/m3
2021-07-26 00:00 7.75 ug/m3 0.37 ug/m3 83.67 ug/m3 6.27 ug/m3 5.14 ug/m3 0.14 mg/m3 25.94 C 68.3 % 2.37 m/s 136.12 Deg -0.01 ug/m3
2021-07-25 23:00 1.07 ug/m3 0.16 ug/m3 87.21 ug/m3 5.88 ug/m3 5.08 ug/m3 0.13 mg/m3 26.02 C 71.84 % 3.36 m/s 140.76 Deg -0.02 ug/m3
2021-07-25 22:00 1.04 ug/m3 0.17 ug/m3 85.69 ug/m3 7.84 ug/m3 4.73 ug/m3 0.14 mg/m3 26 C 76.19 % 3.81 m/s 145.54 Deg -0.02 ug/m3
2021-07-25 21:00 4.12 ug/m3 0.31 ug/m3 80.07 ug/m3 7.63 ug/m3 4.58 ug/m3 0.14 mg/m3 26.02 C 78.17 % 3.5 m/s 165.87 Deg -0.01 ug/m3
2021-07-25 20:00 2.27 ug/m3 0.22 ug/m3 81.22 ug/m3 7.9 ug/m3 4.55 ug/m3 0.14 mg/m3 26.19 C 77.12 % 2.39 m/s 178.15 Deg -0 ug/m3
2021-07-25 19:00 7.26 ug/m3 0.54 ug/m3 84.07 ug/m3 4.89 ug/m3 3.96 ug/m3 0.14 mg/m3 27.46 C 64.4 % 2.27 m/s 168.85 Deg 0.19 ug/m3
2021-07-25 18:00 4.76 ug/m3 0.38 ug/m3 104.47 ug/m3 5.21 ug/m3 4.18 ug/m3 0.13 mg/m3 29.76 C 39.19 % 2.25 m/s 206.68 Deg 0.01 ug/m3
2021-07-25 17:00 2.73 ug/m3 0.31 ug/m3 103.25 ug/m3 6.53 ug/m3 4.39 ug/m3 0.14 mg/m3 29.45 C 47.18 % 1.86 m/s 277.47 Deg 0.05 ug/m3
2021-07-25 16:00 1.74 ug/m3 0.28 ug/m3 97.14 ug/m3 6.63 ug/m3 4.27 ug/m3 0.13 mg/m3 28.85 C 51.03 % 3.25 m/s 225.06 Deg 0.03 ug/m3
2021-07-25 15:00 2.04 ug/m3 0.28 ug/m3 98.52 ug/m3 7.33 ug/m3 4.86 ug/m3 0.13 mg/m3 28.38 C 52.83 % 4.16 m/s 224.17 Deg 0.09 ug/m3
2021-07-25 14:00 2.53 ug/m3 0.8 ug/m3 101.3 ug/m3 6.58 ug/m3 4.33 ug/m3 0.13 mg/m3 28.18 C 53.56 % 4.27 m/s 222.34 Deg 0.2 ug/m3
2021-07-25 13:00 1.23 ug/m3 0.19 ug/m3 98.62 ug/m3 6.46 ug/m3 4.37 ug/m3 0.13 mg/m3 27.71 C 57.07 % 3.93 m/s 213.57 Deg 0.04 ug/m3
2021-07-25 12:00 1.07 ug/m3 0.25 ug/m3 97.4 ug/m3 6.9 ug/m3 4.68 ug/m3 0.13 mg/m3 27.17 C 64.08 % 4.29 m/s 214.96 Deg 0.04 ug/m3
2021-07-25 11:00 2.11 ug/m3 0.27 ug/m3 102.66 ug/m3 6.77 ug/m3 5.2 ug/m3 0.13 mg/m3 27.76 C 51.41 % 4.55 m/s 208.64 Deg 0.07 ug/m3
2021-07-25 10:00 1.72 ug/m3 0.25 ug/m3 102.52 ug/m3 6.94 ug/m3 4.82 ug/m3 0.13 mg/m3 27.01 C 56.9 % 4.19 m/s 215.25 Deg 0.02 ug/m3
2021-07-25 09:00 1.46 ug/m3 0.3 ug/m3 104.58 ug/m3 7.69 ug/m3 4.34 ug/m3 0.13 mg/m3 26.84 C 50.26 % 2.84 m/s 212.84 Deg 0.02 ug/m3
2021-07-25 08:00 0.56 ug/m3 0.32 ug/m3 99.62 ug/m3 6.27 ug/m3 4.48 ug/m3 0.13 mg/m3 25.97 C 64.07 % 1.84 m/s 209.05 Deg 0.04 ug/m3
2021-07-25 07:00 0.24 ug/m3 0.26 ug/m3 91.81 ug/m3 6.11 ug/m3 4.73 ug/m3 0.15 mg/m3 24.94 C 81.74 % 0.92 m/s 211.54 Deg 0.04 ug/m3
2021-07-25 06:00 0.11 ug/m3 0.24 ug/m3 97.84 ug/m3 6.86 ug/m3 4.51 ug/m3 0.14 mg/m3 24.42 C 85.39 % 0.91 m/s 219.11 Deg -0.03 ug/m3
2021-07-25 05:00 0.63 ug/m3 0.33 ug/m3 99.04 ug/m3 6.45 ug/m3 4.98 ug/m3 0.13 mg/m3 24.35 C 83.98 % 1.15 m/s 204.42 Deg -0.01 ug/m3
2021-07-25 04:00 -0.04 ug/m3 0.43 ug/m3 101.71 ug/m3 5.62 ug/m3 4.71 ug/m3 0.13 mg/m3 24.54 C 77.52 % 1.06 m/s 215.19 Deg -0.02 ug/m3
2021-07-25 03:00 0.75 ug/m3 0.17 ug/m3 93.58 ug/m3 5.75 ug/m3 4.27 ug/m3 0.13 mg/m3 24.09 C 86.94 % 1.58 m/s 220.83 Deg -0.02 ug/m3
2021-07-25 02:00 0.04 ug/m3 0.19 ug/m3 87.81 ug/m3 6 ug/m3 4.25 ug/m3 0.12 mg/m3 24.12 C 88.22 % 2.45 m/s 212.95 Deg -0.02 ug/m3
2021-07-25 01:00 0.04 ug/m3 0.25 ug/m3 88.61 ug/m3 6.43 ug/m3 4.98 ug/m3 0.13 mg/m3 24.28 C 82.26 % 2.51 m/s 214.1 Deg -0.03 ug/m3
2021-07-25 00:00 -0.01 ug/m3 0.18 ug/m3 91.04 ug/m3 6.53 ug/m3 4.87 ug/m3 0.13 mg/m3 24.23 C 85.76 % 2.1 m/s 208.75 Deg -0.01 ug/m3
2021-07-24 23:00 0.01 ug/m3 0.2 ug/m3 102.05 ug/m3 6.8 ug/m3 4.41 ug/m3 0.13 mg/m3 24.66 C 83.67 % 1.89 m/s 225.17 Deg -0.02 ug/m3
2021-07-24 22:00 -0.07 ug/m3 0.16 ug/m3 111.5 ug/m3 6.5 ug/m3 4.62 ug/m3 0.13 mg/m3 24.82 C 83.96 % 1.99 m/s 238.27 Deg -0.02 ug/m3
2021-07-24 21:00 0.15 ug/m3 0.15 ug/m3 107.99 ug/m3 6.08 ug/m3 4.64 ug/m3 0.14 mg/m3 25.08 C 82.28 % 2.19 m/s 239.55 Deg -0.01 ug/m3
2021-07-24 20:00 0.36 ug/m3 0.19 ug/m3 100.93 ug/m3 5.94 ug/m3 4.57 ug/m3 0.13 mg/m3 25.56 C 75.49 % 2.29 m/s 243.17 Deg -0.02 ug/m3
2021-07-24 19:00 0.42 ug/m3 0.25 ug/m3 100.24 ug/m3 5.97 ug/m3 4.13 ug/m3 0.13 mg/m3 26.2 C 71.11 % 2.98 m/s 237.89 Deg 0 ug/m3
2021-07-24 18:00 0.54 ug/m3 0.38 ug/m3 98.29 ug/m3 5.7 ug/m3 5.61 ug/m3 0.13 mg/m3 26.59 C 70.97 % 3.51 m/s 232.83 Deg 0.03 ug/m3
2021-07-24 17:00 0.34 ug/m3 0.35 ug/m3 95.53 ug/m3 5.27 ug/m3 4.92 ug/m3 0.14 mg/m3 26.63 C 72.9 % 3.91 m/s 240.96 Deg 0.01 ug/m3
2021-07-24 16:00 0.48 ug/m3 0.32 ug/m3 97.41 ug/m3 5.3 ug/m3 5.28 ug/m3 0.13 mg/m3 26.79 C 72.74 % 4.09 m/s 240.95 Deg 0.02 ug/m3
2021-07-24 15:00 0.57 ug/m3 0.38 ug/m3 105.6 ug/m3 6.4 ug/m3 5.5 ug/m3 0.14 mg/m3 26.72 C 72.04 % 4.36 m/s 241.4 Deg 0.03 ug/m3
2021-07-24 14:00 4.31 ug/m3 0.47 ug/m3 111.36 ug/m3 5.41 ug/m3 5.25 ug/m3 0.14 mg/m3 26.55 C 76.37 % 4.57 m/s 236.63 Deg 0.8 ug/m3
2021-07-24 13:00 1.62 ug/m3 0.56 ug/m3 107.98 ug/m3 4.3 ug/m3 5.06 ug/m3 0.14 mg/m3 26.29 C 76.8 % 4.6 m/s 238.72 Deg 0.13 ug/m3
2021-07-24 12:00 3.25 ug/m3 0.67 ug/m3 109.62 ug/m3 3.88 ug/m3 5.02 ug/m3 0.13 mg/m3 27.63 C 56.31 % 3.62 m/s 266.69 Deg 0.09 ug/m3
2021-07-24 11:00 2.71 ug/m3 0.64 ug/m3 107.64 ug/m3 5.49 ug/m3 4.67 ug/m3 0.13 mg/m3 27.67 C 45.65 % 3.51 m/s 319.67 Deg 0.06 ug/m3
2021-07-24 10:00 6.46 ug/m3 1.28 ug/m3 92.6 ug/m3 6.24 ug/m3 6.03 ug/m3 0.13 mg/m3 26.05 C 65.23 % 3.87 m/s 330.58 Deg 1.81 ug/m3
2021-07-24 09:00 7.79 ug/m3 1.22 ug/m3 84.92 ug/m3 6.98 ug/m3 5.5 ug/m3 0.14 mg/m3 25.09 C 80.36 % 3.91 m/s 320.37 Deg 1.96 ug/m3
2021-07-24 08:00 2.92 ug/m3 0.43 ug/m3 93.06 ug/m3 7.34 ug/m3 4.71 ug/m3 0.14 mg/m3 24.61 C 88.31 % 3.39 m/s 314.01 Deg 0.45 ug/m3
2021-07-24 07:00 1.66 ug/m3 0.39 ug/m3 100.55 ug/m3 7.82 ug/m3 5.01 ug/m3 0.15 mg/m3 24.38 C 86.57 % 2.84 m/s 300.91 Deg 0.12 ug/m3
2021-07-24 06:00 1.05 ug/m3 0.26 ug/m3 105.5 ug/m3 7.82 ug/m3 5.06 ug/m3 0.15 mg/m3 23.96 C 90.01 % 3.1 m/s 288.93 Deg 0.01 ug/m3
2021-07-24 05:00 0.6 ug/m3 0.22 ug/m3 104.23 ug/m3 6.96 ug/m3 4.6 ug/m3 0.13 mg/m3 24 C 88.64 % 3.33 m/s 266.88 Deg -0.12 ug/m3
2021-07-24 04:00 0.46 ug/m3 0.23 ug/m3 103.85 ug/m3 6.5 ug/m3 4.67 ug/m3 0.13 mg/m3 24.19 C 85.52 % 3.95 m/s 254.83 Deg -0.26 ug/m3
2021-07-24 03:00 0.91 ug/m3 0.18 ug/m3 101.74 ug/m3 7.06 ug/m3 4.95 ug/m3 0.13 mg/m3 24.23 C 87.77 % 3.7 m/s 244.61 Deg -0.27 ug/m3
2021-07-24 02:00 1.75 ug/m3 0.24 ug/m3 102.22 ug/m3 6.31 ug/m3 5.37 ug/m3 0.11 mg/m3 24.4 C 83.93 % 3.28 m/s 238.48 Deg -0.26 ug/m3
2021-07-24 01:00 4.07 ug/m3 0.29 ug/m3 101.02 ug/m3 6.11 ug/m3 4.65 ug/m3 0.12 mg/m3 24.38 C 82.17 % 3.05 m/s 233.93 Deg -0.27 ug/m3
2021-07-24 00:00 0.91 ug/m3 0.24 ug/m3 101.05 ug/m3 6.5 ug/m3 5.27 ug/m3 0.13 mg/m3 24.41 C 84.32 % 3.06 m/s 220.87 Deg -0.25 ug/m3
2021-07-23 23:00 3.3 ug/m3 0.31 ug/m3 96.61 ug/m3 6.45 ug/m3 5.59 ug/m3 0.12 mg/m3 24.48 C 80.59 % 2.29 m/s 213.21 Deg -0.27 ug/m3
2021-07-23 22:00 3.84 ug/m3 0.43 ug/m3 100.66 ug/m3 7.09 ug/m3 4.99 ug/m3 0.12 mg/m3 24.91 C 72.5 % 1.35 m/s 209.21 Deg -0.26 ug/m3
2021-07-23 21:00 3.45 ug/m3 0.44 ug/m3 107.06 ug/m3 5.7 ug/m3 5.1 ug/m3 0.12 mg/m3 25.89 C 58.77 % 1.05 m/s 261.18 Deg -0.27 ug/m3
2021-07-23 20:00 N/A 0.4 ug/m3 111.11 ug/m3 6.4 ug/m3 5.63 ug/m3 0.12 mg/m3 25.84 C 59.68 % 0.47 m/s 205.83 Deg N/A
2021-07-23 19:00 N/A 0.46 ug/m3 111.77 ug/m3 11.31 ug/m3 5.42 ug/m3 0.12 mg/m3 26.39 C 67.79 % 1.81 m/s 271.46 Deg N/A
2021-07-23 18:00 N/A 0.51 ug/m3 115.85 ug/m3 8.22 ug/m3 6.32 ug/m3 0.12 mg/m3 26.75 C 65.64 % 3.05 m/s 304.9 Deg N/A
2021-07-23 17:00 N/A 0.61 ug/m3 117.77 ug/m3 8.31 ug/m3 6.6 ug/m3 0.12 mg/m3 26.48 C 73.06 % 3.46 m/s 252.79 Deg N/A
2021-07-23 16:00 N/A 0.84 ug/m3 120.26 ug/m3 8.86 ug/m3 6.38 ug/m3 0.13 mg/m3 26.22 C 76.16 % 4.19 m/s 262.36 Deg N/A
2021-07-23 15:00 N/A 0.81 ug/m3 118.66 ug/m3 9.35 ug/m3 7.1 ug/m3 0.13 mg/m3 26.44 C 77.67 % 4.45 m/s 255.26 Deg N/A
2021-07-23 14:00 N/A 0.98 ug/m3 125.05 ug/m3 10.42 ug/m3 7.23 ug/m3 0.14 mg/m3 26.77 C 75.58 % 3.6 m/s 258.48 Deg N/A
2021-07-23 13:00 N/A 1.03 ug/m3 130.08 ug/m3 11.28 ug/m3 7.04 ug/m3 0.13 mg/m3 27.03 C 67.37 % 3.67 m/s 242.34 Deg N/A
2021-07-23 12:00 N/A 1.21 ug/m3 126.86 ug/m3 11.81 ug/m3 6.68 ug/m3 0.13 mg/m3 27.8 C 63.41 % 2.61 m/s 261.66 Deg N/A
2021-07-23 11:00 N/A 1.12 ug/m3 117.33 ug/m3 12.54 ug/m3 6.85 ug/m3 0.13 mg/m3 26.65 C 74.64 % 2.55 m/s 297.59 Deg N/A
2021-07-23 10:00 N/A 1.15 ug/m3 114.07 ug/m3 14.28 ug/m3 6.38 ug/m3 0.13 mg/m3 26.84 C 73.21 % 2.33 m/s 291.09 Deg N/A
2021-07-23 09:00 N/A 1.29 ug/m3 103.57 ug/m3 15.67 ug/m3 6.91 ug/m3 0.14 mg/m3 26.93 C 70.81 % 2 m/s 261.11 Deg N/A
2021-07-23 08:00 N/A 1.08 ug/m3 96.44 ug/m3 15.3 ug/m3 7.5 ug/m3 0.14 mg/m3 26.67 C 69.88 % 2.33 m/s 89.18 Deg N/A
2021-07-23 07:00 N/A 0.77 ug/m3 73.74 ug/m3 13.24 ug/m3 7.43 ug/m3 0.13 mg/m3 24.6 C 86.32 % 2.8 m/s 65.52 Deg N/A
2021-07-23 06:00 N/A 0.54 ug/m3 78.17 ug/m3 15.25 ug/m3 7.61 ug/m3 0.13 mg/m3 23.52 C 93.85 % 3.55 m/s 63.42 Deg N/A
2021-07-23 05:00 N/A 0.56 ug/m3 63.64 ug/m3 14.5 ug/m3 7.13 ug/m3 0.13 mg/m3 23.18 C 95.13 % 3.32 m/s 48.48 Deg N/A
2021-07-23 04:00 N/A 0.51 ug/m3 75.53 ug/m3 12.94 ug/m3 6.1 ug/m3 0.13 mg/m3 23.53 C 93.59 % 4.21 m/s 27.88 Deg N/A
2021-07-23 03:00 N/A 0.51 ug/m3 88.31 ug/m3 13.18 ug/m3 6.59 ug/m3 0.13 mg/m3 23.79 C 92.2 % 5.06 m/s 40.42 Deg N/A
2021-07-23 02:00 N/A 0.69 ug/m3 88.87 ug/m3 15.41 ug/m3 6.44 ug/m3 0.11 mg/m3 23.9 C 92.1 % 4.97 m/s 348.95 Deg N/A
2021-07-23 01:00 N/A 0.71 ug/m3 89.59 ug/m3 14.03 ug/m3 5.73 ug/m3 0.13 mg/m3 24.36 C 86.21 % 4 m/s 318.47 Deg N/A
2021-07-23 00:00 N/A 0.55 ug/m3 100.25 ug/m3 11.68 ug/m3 5.55 ug/m3 0.12 mg/m3 24.94 C 80.85 % 4.47 m/s 274.85 Deg N/A
2021-07-22 23:00 N/A 0.37 ug/m3 111.03 ug/m3 10.71 ug/m3 5.6 ug/m3 0.13 mg/m3 25.32 C 77.36 % 4.42 m/s 248.61 Deg N/A
2021-07-22 22:00 N/A 0.34 ug/m3 109.81 ug/m3 11.55 ug/m3 6.09 ug/m3 0.12 mg/m3 25.09 C 80.53 % 3.16 m/s 218.28 Deg N/A
2021-07-22 21:00 N/A 0.41 ug/m3 112.16 ug/m3 9.85 ug/m3 5.96 ug/m3 0.12 mg/m3 25.24 C 77.44 % 3.86 m/s 244.54 Deg N/A
2021-07-22 20:00 N/A 0.43 ug/m3 114.72 ug/m3 10.28 ug/m3 6.53 ug/m3 0.13 mg/m3 25.25 C 78.15 % 3.34 m/s 249.82 Deg N/A
2021-07-22 19:00 N/A 0.62 ug/m3 124.69 ug/m3 10.74 ug/m3 5.6 ug/m3 0.13 mg/m3 25.8 C 76.08 % 3.73 m/s 267.37 Deg N/A
2021-07-22 18:00 N/A 0.85 ug/m3 128.65 ug/m3 10.34 ug/m3 6.23 ug/m3 0.13 mg/m3 26.13 C 72.16 % 4.25 m/s 282.55 Deg N/A
2021-07-22 17:00 N/A 0.72 ug/m3 128.83 ug/m3 8.71 ug/m3 5.16 ug/m3 0.14 mg/m3 26.26 C 69.5 % 5.06 m/s 281.88 Deg N/A
2021-07-22 16:00 N/A 0.48 ug/m3 118.04 ug/m3 5.78 ug/m3 4.8 ug/m3 0.13 mg/m3 26.02 C 80.9 % 5.41 m/s 268.12 Deg N/A
2021-07-22 15:00 N/A 0.38 ug/m3 105.19 ug/m3 6.35 ug/m3 5.82 ug/m3 0.12 mg/m3 26.52 C 73.66 % 5.08 m/s 248.19 Deg N/A
2021-07-22 14:00 N/A 0.56 ug/m3 113.12 ug/m3 6.15 ug/m3 5.3 ug/m3 0.12 mg/m3 26.56 C 70.35 % 4.84 m/s 241.62 Deg N/A
2021-07-22 13:00 N/A 0.51 ug/m3 112.33 ug/m3 5.88 ug/m3 4.28 ug/m3 0.13 mg/m3 27.5 C 61.26 % 3.86 m/s 254.51 Deg N/A
2021-07-22 12:00 N/A 0.51 ug/m3 110.78 ug/m3 7.82 ug/m3 4.78 ug/m3 0.13 mg/m3 27.07 C 63.58 % 3.23 m/s 253.47 Deg N/A
2021-07-22 11:00 N/A 0.53 ug/m3 110.77 ug/m3 7.95 ug/m3 6.15 ug/m3 0.13 mg/m3 25.96 C 70.71 % 3.31 m/s 271.91 Deg N/A
2021-07-22 10:00 N/A 0.38 ug/m3 100.09 ug/m3 9.4 ug/m3 6.38 ug/m3 0.13 mg/m3 24.63 C 87.43 % 3.03 m/s 323.2 Deg N/A
2021-07-22 09:00 N/A 0.38 ug/m3 97.25 ug/m3 8.36 ug/m3 6.58 ug/m3 0.13 mg/m3 24.38 C 91.72 % 3.73 m/s 337.23 Deg N/A
2021-07-22 08:00 N/A 0.34 ug/m3 101.32 ug/m3 8.7 ug/m3 7.05 ug/m3 0.13 mg/m3 24.18 C 91.71 % 3.14 m/s 316.17 Deg N/A
2021-07-22 07:00 N/A 0.3 ug/m3 99.64 ug/m3 9.41 ug/m3 7.18 ug/m3 0.13 mg/m3 23.64 C 94.1 % 2.98 m/s 287.1 Deg N/A
2021-07-22 06:00 N/A 0.38 ug/m3 91.2 ug/m3 9.72 ug/m3 7.78 ug/m3 0.13 mg/m3 23.27 C 95.41 % 2.43 m/s 287.29 Deg N/A
2021-07-22 05:00 N/A 0.4 ug/m3 103.27 ug/m3 8.56 ug/m3 6.99 ug/m3 0.13 mg/m3 23.49 C 93.67 % 2.07 m/s 292.15 Deg N/A
2021-07-22 04:00 N/A 0.41 ug/m3 111.62 ug/m3 5.29 ug/m3 5.4 ug/m3 0.13 mg/m3 24.06 C 78.17 % 1.57 m/s 266.34 Deg N/A
2021-07-22 03:00 N/A 0.37 ug/m3 117.01 ug/m3 5.43 ug/m3 5.01 ug/m3 0.12 mg/m3 25.41 C 53.55 % 1.06 m/s 92.81 Deg N/A
2021-07-22 02:00 N/A 0.55 ug/m3 117.21 ug/m3 6.61 ug/m3 5.69 ug/m3 0.12 mg/m3 25.2 C 56.6 % 1.1 m/s 51.67 Deg N/A
2021-07-22 01:00 N/A 0.52 ug/m3 112.22 ug/m3 7.52 ug/m3 6.76 ug/m3 0.14 mg/m3 24.71 C 63.68 % 2.07 m/s 58.97 Deg N/A
2021-07-22 00:00 N/A 0.53 ug/m3 113.38 ug/m3 6.99 ug/m3 6.37 ug/m3 0.14 mg/m3 24.36 C 69.99 % 1.93 m/s 58.5 Deg N/A
2021-07-21 23:00 N/A 0.64 ug/m3 119.55 ug/m3 7.77 ug/m3 6 ug/m3 0.14 mg/m3 24.47 C 70.69 % 1.49 m/s 46.03 Deg N/A
2021-07-21 22:00 N/A 0.61 ug/m3 121.59 ug/m3 7.52 ug/m3 6.27 ug/m3 0.15 mg/m3 24.17 C 75.19 % 1 m/s 60.58 Deg N/A
2021-07-21 21:00 N/A 0.53 ug/m3 119.27 ug/m3 6.56 ug/m3 5.96 ug/m3 0.15 mg/m3 23.99 C 81.11 % 1.27 m/s 214.23 Deg N/A
2021-07-21 20:00 N/A 0.54 ug/m3 122.03 ug/m3 6.78 ug/m3 5.96 ug/m3 0.15 mg/m3 24.07 C 84.91 % 1.99 m/s 350.38 Deg N/A
2021-07-21 19:00 N/A 0.54 ug/m3 126.03 ug/m3 6.99 ug/m3 6.08 ug/m3 0.15 mg/m3 24.49 C 86.42 % 3.52 m/s 347.47 Deg N/A
2021-07-21 18:00 N/A 0.49 ug/m3 118.24 ug/m3 9.3 ug/m3 6.45 ug/m3 0.16 mg/m3 25.2 C 86.12 % 3.61 m/s 328.82 Deg N/A
2021-07-21 17:00 N/A 0.57 ug/m3 101.28 ug/m3 9.4 ug/m3 7.17 ug/m3 0.16 mg/m3 25.43 C 83.56 % 3.44 m/s 247.99 Deg N/A
2021-07-21 16:00 N/A 0.67 ug/m3 107.21 ug/m3 8.41 ug/m3 7.4 ug/m3 0.16 mg/m3 25.37 C 84.59 % 3.71 m/s 236.23 Deg N/A
2021-07-21 15:00 N/A 0.49 ug/m3 99.02 ug/m3 8.16 ug/m3 5.83 ug/m3 0.15 mg/m3 25.43 C 85.13 % 4.21 m/s 227.89 Deg N/A
2021-07-21 14:00 N/A 0.47 ug/m3 99.3 ug/m3 6.63 ug/m3 6.36 ug/m3 0.15 mg/m3 25.2 C 87.2 % 4.28 m/s 222.38 Deg N/A
2021-07-21 13:00 N/A 0.38 ug/m3 95.23 ug/m3 6.16 ug/m3 5.41 ug/m3 0.15 mg/m3 25.06 C 88.44 % 4.01 m/s 232.87 Deg N/A
2021-07-21 12:00 N/A 0.34 ug/m3 94.94 ug/m3 6.47 ug/m3 4.94 ug/m3 0.15 mg/m3 24.89 C 89.86 % 4.08 m/s 231.27 Deg N/A
2021-07-21 11:00 N/A 0.34 ug/m3 101.64 ug/m3 6.37 ug/m3 5.28 ug/m3 0.14 mg/m3 25.26 C 88.3 % 3.36 m/s 248.72 Deg N/A
2021-07-21 10:00 N/A 0.32 ug/m3 104.25 ug/m3 8.65 ug/m3 5.64 ug/m3 0.15 mg/m3 24.84 C 88.51 % 3.11 m/s 226.63 Deg N/A
2021-07-21 09:00 N/A 0.44 ug/m3 108.93 ug/m3 12.83 ug/m3 5.62 ug/m3 0.14 mg/m3 25.41 C 82.41 % 1.94 m/s 218.58 Deg N/A

It is to be noted that the data is provisional and subject to quality assurance procedures. For validated data kindly refer your request to contact.air@era.org.mt